createdAt,value
2023-04-08T00:02:01.018Z,312.87
2023-04-08T00:07:23.574Z,314.65
2023-04-08T00:12:15.993Z,316.45
2023-04-08T00:17:15.917Z,318.89
2023-04-08T00:22:15.854Z,317.97
2023-04-08T00:27:15.770Z,321.36
2023-04-08T00:32:15.733Z,320.43
2023-04-08T00:37:15.667Z,320.74
2023-04-08T00:42:15.584Z,318.27
2023-04-08T00:47:15.502Z,322.61
2023-04-08T00:52:15.466Z,323.55
2023-04-08T00:57:15.396Z,326.42
2023-04-08T01:02:15.613Z,326.42
2023-04-08T01:07:15.312Z,326.10
2023-04-08T01:12:15.208Z,324.82
2023-04-08T01:17:15.109Z,321.98
2023-04-08T01:22:16.018Z,319.50
2023-04-08T01:27:14.978Z,314.95
2023-04-08T01:32:14.973Z,311.70
2023-04-08T01:37:14.860Z,314.36
2023-04-08T01:42:14.945Z,312.28
2023-04-08T01:47:14.729Z,311.99
2023-04-08T01:52:14.694Z,309.66
2023-04-08T01:57:14.695Z,309.08
2023-04-08T02:02:14.631Z,309.08
2023-04-08T02:07:14.453Z,311.99
2023-04-08T02:12:14.437Z,314.36
2023-04-08T02:17:14.316Z,315.25
2023-04-08T02:22:14.280Z,314.36
2023-04-08T02:27:14.198Z,313.46
2023-04-08T02:32:14.143Z,312.87
2023-04-08T02:37:14.049Z,312.87
2023-04-08T02:42:14.018Z,312.87
2023-04-08T02:47:13.922Z,312.58
2023-04-08T02:52:13.880Z,313.17
2023-04-08T02:57:13.807Z,311.40
2023-04-08T03:02:13.837Z,308.80
2023-04-08T03:07:13.637Z,306.23
2023-04-08T03:12:13.618Z,305.95
2023-04-08T03:17:13.561Z,303.99
2023-04-08T03:22:13.473Z,303.99
2023-04-08T03:27:13.382Z,302.60
2023-04-08T03:32:13.356Z,302.60
2023-04-08T03:37:13.288Z,299.87
2023-04-08T03:42:13.272Z,300.14
2023-04-08T03:47:13.151Z,300.68
2023-04-08T03:52:13.089Z,300.14
2023-04-08T03:57:13.000Z,298.25
2023-04-08T04:02:13.075Z,297.98
2023-04-08T04:07:12.859Z,297.18
2023-04-08T04:12:12.837Z,295.86
2023-04-08T04:17:23.774Z,293.50
2023-04-08T04:22:16.099Z,295.59
2023-04-08T04:27:16.040Z,294.02
2023-04-08T04:32:16.013Z,294.54
2023-04-08T04:37:15.932Z,295.07
2023-04-08T04:42:15.821Z,299.33
2023-04-08T04:47:15.796Z,301.23
2023-04-08T04:52:15.730Z,300.95
2023-04-08T04:57:15.632Z,301.50
2023-04-08T05:02:15.666Z,302.88
2023-04-08T05:07:15.854Z,303.71
2023-04-08T05:12:15.449Z,305.67
2023-04-08T05:17:15.400Z,303.99
2023-04-08T05:22:15.332Z,304.27
2023-04-08T05:27:15.271Z,302.60
2023-04-08T05:32:15.201Z,303.43
2023-04-08T05:37:15.143Z,304.27
2023-04-08T05:42:15.109Z,303.71
2023-04-08T05:47:15.001Z,303.15
2023-04-08T05:52:14.929Z,302.60
2023-04-08T05:57:14.929Z,303.43
2023-04-08T06:02:14.872Z,303.15
2023-04-08T06:07:14.742Z,304.55
2023-04-08T06:12:14.628Z,305.95
2023-04-08T06:17:14.606Z,307.08
2023-04-08T06:22:14.519Z,310.82
2023-04-08T06:27:14.467Z,312.58
2023-04-08T06:32:14.387Z,312.58
2023-04-08T06:37:14.348Z,312.58
2023-04-08T06:42:14.273Z,311.40
2023-04-08T06:47:14.215Z,308.80
2023-04-08T06:52:15.227Z,308.80
2023-04-08T06:57:14.079Z,312.58
2023-04-08T07:02:14.047Z,316.15
2023-04-08T07:07:14.029Z,318.27
2023-04-08T07:12:13.887Z,319.50
2023-04-08T07:17:13.834Z,319.50
2023-04-08T07:22:13.730Z,324.18
2023-04-08T07:27:13.680Z,321.05
2023-04-08T07:32:13.638Z,319.50
2023-04-08T07:37:13.554Z,317.67
2023-04-08T07:42:13.467Z,321.98
2023-04-08T07:47:13.422Z,321.36
2023-04-08T07:52:13.347Z,322.92
2023-04-08T07:57:13.285Z,319.19
2023-04-08T08:02:13.337Z,312.58
2023-04-08T08:07:13.158Z,301.50
2023-04-08T08:12:13.093Z,279.88
2023-04-08T08:17:12.997Z,266.19
2023-04-08T08:22:13.025Z,263.02
2023-04-08T08:27:12.885Z,258.71
2023-04-08T08:32:12.826Z,259.73
2023-04-08T08:37:12.745Z,260.34
2023-04-08T08:42:12.675Z,258.71
2023-04-08T08:47:12.612Z,259.32
2023-04-08T08:52:12.578Z,260.75
2023-04-08T08:57:12.522Z,263.65
2023-04-08T09:02:12.486Z,269.43
2023-04-08T09:07:12.341Z,272.98
2023-04-08T09:12:12.336Z,274.78
2023-04-08T09:17:12.233Z,272.98
2023-04-08T09:22:12.123Z,276.62
2023-04-08T09:27:12.098Z,285.42
2023-04-08T09:32:12.020Z,287.15
2023-04-08T09:37:11.945Z,286.41
2023-04-08T09:42:11.876Z,287.15
2023-04-08T09:47:11.816Z,289.15
2023-04-08T09:52:11.759Z,290.67
2023-04-08T09:57:12.489Z,292.72
2023-04-08T10:02:11.684Z,296.12
2023-04-08T10:07:11.587Z,294.02
2023-04-08T10:12:11.498Z,293.76
2023-04-08T10:17:11.436Z,295.07
2023-04-08T10:22:11.340Z,298.52
2023-04-08T10:27:11.296Z,297.18
2023-04-08T10:32:11.284Z,299.60
2023-04-08T10:37:11.194Z,298.52
2023-04-08T10:42:11.075Z,300.41
2023-04-08T10:47:11.027Z,306.80
2023-04-08T10:52:11.084Z,309.66
2023-04-08T10:57:10.863Z,310.82
2023-04-08T11:02:10.905Z,312.58
2023-04-08T11:07:10.776Z,313.17
2023-04-08T11:12:10.668Z,313.46
2023-04-08T11:17:10.653Z,311.99
2023-04-08T11:22:10.555Z,311.70
2023-04-08T11:27:10.464Z,313.17
2023-04-08T11:32:10.414Z,310.53
2023-04-08T11:37:10.360Z,311.40
2023-04-08T11:42:10.271Z,311.40
2023-04-08T11:47:10.194Z,312.87
2023-04-08T11:52:10.136Z,318.89
2023-04-08T11:57:10.199Z,316.15
2023-04-08T12:02:10.072Z,321.05
2023-04-08T12:07:09.962Z,315.85
2023-04-08T12:12:09.921Z,318.89
2023-04-08T12:17:09.821Z,321.05
2023-04-08T12:22:09.828Z,321.36
2023-04-08T12:27:09.746Z,320.74
2023-04-08T12:32:09.604Z,317.67
2023-04-08T12:37:09.578Z,314.95
2023-04-08T12:42:09.507Z,310.53
2023-04-08T12:47:09.587Z,309.95
2023-04-08T12:52:09.379Z,309.95
2023-04-08T12:57:09.343Z,312.58
2023-04-08T13:02:09.290Z,309.08
2023-04-08T13:07:09.184Z,307.94
2023-04-08T13:12:09.102Z,306.80
2023-04-08T13:17:09.009Z,302.05
2023-04-08T13:22:08.960Z,299.60
2023-04-08T13:27:08.947Z,296.12
2023-04-08T13:32:08.900Z,294.28
2023-04-08T13:37:08.770Z,292.72
2023-04-08T13:42:08.666Z,292.72
2023-04-08T13:47:08.644Z,293.76
2023-04-08T13:52:08.591Z,296.65
2023-04-08T13:57:08.520Z,295.33
2023-04-08T14:02:08.425Z,295.07
2023-04-08T14:07:08.386Z,295.33
2023-04-08T14:12:08.293Z,297.18
2023-04-08T14:17:08.245Z,297.98
2023-04-08T14:22:08.164Z,296.38
2023-04-08T14:27:08.118Z,294.54
2023-04-08T14:32:08.001Z,294.80
2023-04-08T14:37:07.980Z,294.80
2023-04-08T14:42:07.882Z,291.44
2023-04-08T14:47:07.803Z,289.91
2023-04-08T14:52:07.827Z,288.65
2023-04-08T14:57:07.725Z,287.40
2023-04-08T15:02:07.721Z,288.15
2023-04-08T15:07:07.595Z,289.66
2023-04-08T15:12:07.522Z,289.66
2023-04-08T15:17:07.433Z,287.65
2023-04-08T15:22:07.397Z,287.65
2023-04-08T15:27:07.313Z,287.65
2023-04-08T15:32:07.259Z,290.93
2023-04-08T15:37:07.179Z,290.67
2023-04-08T15:42:07.114Z,290.42
2023-04-08T15:47:07.080Z,289.66
2023-04-08T15:52:06.943Z,291.95
2023-04-08T15:57:06.902Z,290.16
2023-04-08T16:02:06.870Z,292.72
2023-04-08T16:07:06.789Z,293.24
2023-04-08T16:12:06.686Z,293.76
2023-04-08T16:17:06.703Z,292.46
2023-04-08T16:22:06.597Z,292.46
2023-04-08T16:27:06.517Z,292.46
2023-04-08T16:32:06.416Z,290.67
2023-04-08T16:37:06.412Z,287.15
2023-04-08T16:42:06.319Z,290.93
2023-04-08T16:47:06.208Z,293.76
2023-04-08T16:52:06.214Z,288.90
2023-04-08T16:57:06.092Z,289.91
2023-04-08T17:02:06.068Z,290.93
2023-04-08T17:07:06.123Z,289.91
2023-04-08T17:12:05.901Z,288.40
2023-04-08T17:17:05.824Z,286.65
2023-04-08T17:22:05.804Z,285.67
2023-04-08T17:27:05.700Z,284.44
2023-04-08T17:32:05.670Z,284.93
2023-04-08T17:37:05.569Z,284.20
2023-04-08T17:42:05.584Z,284.69
2023-04-08T17:47:05.411Z,283.23
2023-04-08T17:52:05.421Z,283.23
2023-04-08T17:57:05.314Z,282.02
2023-04-08T18:02:05.325Z,282.99
2023-04-08T18:07:05.319Z,280.36
2023-04-08T18:12:05.114Z,284.69
2023-04-08T18:17:05.215Z,287.40
2023-04-08T18:22:05.947Z,288.15
2023-04-08T18:27:05.149Z,288.40
2023-04-08T18:32:04.917Z,288.40
2023-04-08T18:37:04.782Z,289.15
2023-04-08T18:42:04.715Z,286.41
2023-04-08T18:47:04.649Z,284.69
2023-04-08T18:52:04.592Z,283.95
2023-04-08T18:57:04.559Z,282.51
2023-04-08T19:02:04.614Z,283.23
2023-04-08T19:07:04.385Z,283.47
2023-04-08T19:12:04.340Z,283.95
2023-04-08T19:17:04.349Z,285.42
2023-04-08T19:22:04.190Z,286.41
2023-04-08T19:27:04.129Z,286.65
2023-04-08T19:32:04.016Z,287.40
2023-04-08T19:37:04.265Z,288.15
2023-04-08T19:42:03.944Z,288.65
2023-04-08T19:47:03.913Z,291.18
2023-04-08T19:52:03.810Z,291.95
2023-04-08T19:57:03.722Z,290.67
2023-04-08T20:02:03.686Z,291.95
2023-04-08T20:07:03.702Z,292.21
2023-04-08T20:12:03.859Z,293.76
2023-04-08T20:17:03.441Z,293.76
2023-04-08T20:22:03.626Z,293.50
2023-04-08T20:27:03.316Z,292.72
2023-04-08T20:32:03.254Z,292.98
2023-04-08T20:37:03.201Z,292.21
2023-04-08T20:42:03.101Z,295.07
2023-04-08T20:47:03.085Z,291.69
2023-04-08T20:52:02.970Z,292.21
2023-04-08T20:57:02.914Z,294.54
2023-04-08T21:02:02.897Z,292.46
2023-04-08T21:07:02.882Z,295.59
2023-04-08T21:12:02.770Z,296.65
2023-04-08T21:17:02.677Z,299.05
2023-04-08T21:22:02.584Z,298.52
2023-04-08T21:27:02.535Z,304.55
2023-04-08T21:32:02.513Z,310.53
2023-04-08T21:37:02.389Z,311.70
2023-04-08T21:42:02.306Z,320.12
2023-04-08T21:47:02.345Z,330.64
2023-04-08T21:52:02.185Z,333.97
2023-04-08T21:57:02.096Z,338.40
2023-04-08T22:02:02.247Z,336.68
2023-04-08T22:07:01.993Z,336.68
2023-04-08T22:12:01.895Z,335.32
2023-04-08T22:17:01.877Z,336.68
2023-04-08T22:22:01.767Z,336.68
2023-04-08T22:27:01.735Z,339.79
2023-04-08T22:32:01.672Z,341.54
2023-04-08T22:37:01.598Z,342.24
2023-04-08T22:42:01.507Z,342.24
2023-04-08T22:47:01.464Z,342.59
2023-04-08T22:52:01.463Z,345.09
2023-04-08T22:57:01.317Z,345.45
2023-04-08T23:02:01.303Z,345.81
2023-04-08T23:07:01.193Z,347.62
2023-04-08T23:12:01.108Z,353.92
2023-04-08T23:17:01.661Z,356.97
2023-04-08T23:22:01.010Z,355.82
2023-04-08T23:27:00.930Z,357.35
2023-04-08T23:32:00.855Z,359.29
2023-04-08T23:37:00.812Z,366.83
2023-04-08T23:42:00.720Z,371.35
2023-04-08T23:47:00.689Z,370.94
2023-04-08T23:52:00.610Z,373.44
2023-04-08T23:57:00.550Z,373.02
